Flight Track Log - Related Links

Times and Time Zones

All times are in EDT time to prevent confusion due to time zone crossing. See the BJS542 flight status page for this flight to view local times or setup timezone preferences in your user account.

Time Position Orientation Groundspeed Altitude Reporting Facility
EDT Latitude Longitude Course Direction KTS MPH feet Rate Location/Type
Fri 08:46:35 PM 31.7756 -114.5553 322° Northwest 462 532 43,000  Level Los Angeles Center
Fri 08:47:37 PM 31.8769 -114.6472 322° Northwest 460 529 43,000  Level Los Angeles Center
Fri 08:48:39 PM 31.9783 -114.7386 323° Northwest 458 527 43,000  Level Los Angeles Center
Fri 08:49:41 PM 32.0986 -114.8475 323° Northwest 454 522 43,000  Level Los Angeles Center
Fri 08:50:43 PM 32.1992 -114.9389 322° Northwest 456 525 43,000  Level Los Angeles Center
Fri 08:51:45 PM 32.3006 -115.0300 323° Northwest 457 526 43,000  Level Los Angeles Center
Fri 08:52:47 PM 32.3817 -115.1444 310° West 462 532 43,000  Level Los Angeles Center
Fri 08:53:49 PM 32.4522 -115.2800 302° West 444 511 43,000  Level Los Angeles Center
Fri 08:55:04 PM 32.5436 -115.4169 308° West 448 516 43,000  Level Los Angeles Center
Fri 08:56:06 PM 32.6681 -115.4572 345° North 479 551 43,000 -484 Level Los Angeles Center
Fri 08:57:08 PM 32.8003 -115.4606 359° North 480 552 42,000 -1,355 Descending Los Angeles Center
Fri 08:58:10 PM 32.8939 -115.5781 314° West 441 507 40,200 -1,645 Descending Los Angeles Center
Fri 08:59:12 PM 32.8931 -115.7156 270° West 421 484 38,600 -1,742 Descending Los Angeles Center
Fri 09:00:14 PM 32.8878 -115.8608 268° West 440 506 36,600 -2,129 Descending Los Angeles Center
Fri 09:01:16 PM 32.9181 -116.0036 284° West 467 537 34,200 -2,274 Descending Los Angeles Center
Fri 09:02:18 PM 32.9694 -116.1381 295° West 454 522 31,900 -2,468 Descending Los Angeles Center
Fri 09:03:20 PM 33.0319 -116.2967 295° West 444 511 29,100 -2,468 Descending Los Angeles Center
Fri 09:04:22 PM 33.0797 -116.4217 295° West 435 501 26,800 -2,129 Descending Los Angeles Center
Fri 09:05:24 PM 33.1250 -116.5419 294° West 411 473 24,700 -1,355 Descending Los Angeles Center
Fri 09:06:26 PM 33.1500 -116.6636 284° West 394 453 24,000 -1,113 Descending Los Angeles Center
Fri 09:07:28 PM 33.1683 -116.8139 278° West 384 442 22,400 -2,081 Descending Los Angeles Center
Fri 09:08:30 PM 33.1839 -116.9403 278° West 387 445 19,700 -2,371 Descending Los Angeles Center
Fri 09:09:32 PM 33.1997 -117.0719 278° West 398 458 17,500 -2,081 Descending Los Angeles Center
Fri 09:10:34 PM 33.2158 -117.2122 278° West 399 459 15,400 -2,087 Descending Los Angeles Center
Fri 09:11:04 PM 33.2167 -117.2833 271° West 373 429 14,300 -2,000 Descending Southern California TRACON
Fri 09:12:04 PM 33.2333 -117.4000 280° West 435 501 12,400 -1,100 Descending Southern California TRACON
Fri 09:13:04 PM 33.2500 -117.5167 280° West 353 406 12,100 -250 Descending Southern California TRACON
Fri 09:14:04 PM 33.2667 -117.6333 280° West 363 418 11,900 -429 Descending Southern California TRACON
Fri 09:14:42 PM 33.3008 -117.6775 313° West 382 440 11,400 -1,080 Descending Los Angeles Center
Fri 09:15:44 PM 33.3822 -117.7575 321° Northwest 384 442 10,100 -968 Descending Los Angeles Center
Fri 09:16:46 PM 33.4672 -117.8406 321° Northwest 326 375 9,400 -1,016 Descending Los Angeles Center
Fri 09:17:48 PM 33.5311 -117.9036 321° Northwest 300 345 8,000 -774 Descending Los Angeles Center
Fri 09:18:50 PM 33.5919 -117.9639 320° Northwest 289 333 7,800 -532 Descending Los Angeles Center
Fri 09:19:52 PM 33.6581 -118.0064 332° Northwest 273 314 6,900 -387 Descending Los Angeles Center
Fri 09:20:54 PM 33.7264 -118.0333 342° North 262 302 7,000 -145 Climbing Los Angeles Center
Fri 09:21:56 PM 33.8111 -118.0567 347° North 262 302 6,600 -919 Descending Los Angeles Center
Fri 09:22:58 PM 33.8831 -118.0653 354° North 263 303 5,100 -726 Descending Los Angeles Center
Fri 09:24:00 PM 33.9472 -118.0825 347° North 251 289 5,100 -145 Level Los Angeles Center
Fri 09:25:02 PM 33.9633 -118.1508 286° West 222 255 4,800 -726 Descending Los Angeles Center
Fri 09:26:04 PM 33.9536 -118.2194 260° West 211 243 3,600 -1,258 Descending Los Angeles Center
Fri 09:27:06 PM 33.9486 -118.2886 265° West 188 216 2,200 -1,113 Descending Los Angeles Center
Fri 09:28:08 PM 33.9422 -118.3408 262° West 171 197 1,300 -864 Descending Los Angeles Center
Fri 09:29:11 PM 33.9378 -118.3864 263° West 152 175 400 -857 Descending Los Angeles Center
Fri 09:31:00 PM 33.9333 -118.4000 296° West  Level FlightAware Approximate
Fri 09:38:00 PM 33.9425 -118.4081 296° West  Level Estimated

Login

Don't have an account? Register now (free) for customized features, flight alerts, and more!